sensor_id;sensor_type;location;lat;lon;timestamp;pressure;altitude;pressure_sealevel;temperature;humidity
50011;BME280;35899;50.352;19.390;2023-06-26T00:02:05;97857.40;;;15.41;67.44
50011;BME280;35899;50.352;19.390;2023-06-26T00:04:31;97856.26;;;15.41;67.68
50011;BME280;35899;50.352;19.390;2023-06-26T00:06:58;97856.71;;;15.41;67.83
50011;BME280;35899;50.352;19.390;2023-06-26T00:09:24;97861.73;;;15.42;67.86
50011;BME280;35899;50.352;19.390;2023-06-26T00:11:51;97858.31;;;15.41;67.96
50011;BME280;35899;50.352;19.390;2023-06-26T00:14:17;97857.08;;;15.39;68.13
50011;BME280;35899;50.352;19.390;2023-06-26T00:16:43;97853.30;;;15.37;68.04
50011;BME280;35899;50.352;19.390;2023-06-26T00:19:10;97852.85;;;15.32;67.98
50011;BME280;35899;50.352;19.390;2023-06-26T00:21:36;97857.67;;;15.27;67.95
50011;BME280;35899;50.352;19.390;2023-06-26T00:24:03;97857.67;;;15.23;68.17
50011;BME280;35899;50.352;19.390;2023-06-26T00:26:29;97859.36;;;15.18;68.25
50011;BME280;35899;50.352;19.390;2023-06-26T00:28:56;97859.48;;;15.15;68.21
50011;BME280;35899;50.352;19.390;2023-06-26T00:31:23;97855.86;;;15.10;68.19
50011;BME280;35899;50.352;19.390;2023-06-26T00:33:49;97856.50;;;15.07;68.38
50011;BME280;35899;50.352;19.390;2023-06-26T00:36:15;97857.21;;;15.03;68.31
50011;BME280;35899;50.352;19.390;2023-06-26T00:38:42;97858.75;;;14.97;68.53
50011;BME280;35899;50.352;19.390;2023-06-26T00:41:08;97858.39;;;14.92;68.49
50011;BME280;35899;50.352;19.390;2023-06-26T00:43:35;97853.88;;;14.86;68.64
50011;BME280;35899;50.352;19.390;2023-06-26T00:46:01;97852.11;;;14.80;68.53
50011;BME280;35899;50.352;19.390;2023-06-26T00:48:27;97848.04;;;14.75;68.75
50011;BME280;35899;50.352;19.390;2023-06-26T00:50:54;97847.38;;;14.71;68.87
50011;BME280;35899;50.352;19.390;2023-06-26T00:53:20;97849.38;;;14.68;68.93
50011;BME280;35899;50.352;19.390;2023-06-26T00:55:47;97845.80;;;14.65;69.10
50011;BME280;35899;50.352;19.390;2023-06-26T00:58:14;97845.08;;;14.63;69.10
50011;BME280;35899;50.352;19.390;2023-06-26T01:00:40;97846.70;;;14.62;69.35
50011;BME280;35899;50.352;19.390;2023-06-26T01:03:07;97846.05;;;14.62;69.51
50011;BME280;35899;50.352;19.390;2023-06-26T01:05:34;97844.20;;;14.61;69.41
50011;BME280;35899;50.352;19.390;2023-06-26T01:08:00;97841.88;;;14.58;69.46
50011;BME280;35899;50.352;19.390;2023-06-26T01:10:27;97843.79;;;14.50;69.21
50011;BME280;35899;50.352;19.390;2023-06-26T01:12:54;97844.34;;;14.41;69.17
50011;BME280;35899;50.352;19.390;2023-06-26T01:15:21;97844.64;;;14.32;68.96
50011;BME280;35899;50.352;19.390;2023-06-26T01:17:50;97842.55;;;14.28;69.44
50011;BME280;35899;50.352;19.390;2023-06-26T01:20:17;97843.19;;;14.22;69.40
50011;BME280;35899;50.352;19.390;2023-06-26T01:25:32;97838.83;;;14.08;69.39
50011;BME280;35899;50.352;19.390;2023-06-26T01:27:59;97836.58;;;14.00;69.63
50011;BME280;35899;50.352;19.390;2023-06-26T01:30:25;97836.35;;;13.93;69.66
50011;BME280;35899;50.352;19.390;2023-06-26T01:32:52;97830.00;;;13.85;69.77
50011;BME280;35899;50.352;19.390;2023-06-26T01:35:21;97828.70;;;13.80;70.03
50011;BME280;35899;50.352;19.390;2023-06-26T01:37:47;97825.38;;;13.76;69.96
50011;BME280;35899;50.352;19.390;2023-06-26T01:40:14;97824.54;;;13.74;70.20
50011;BME280;35899;50.352;19.390;2023-06-26T01:42:40;97824.07;;;13.71;70.43
50011;BME280;35899;50.352;19.390;2023-06-26T01:45:28;97823.96;;;13.68;70.44
50011;BME280;35899;50.352;19.390;2023-06-26T01:47:53;97820.45;;;13.58;70.72
50011;BME280;35899;50.352;19.390;2023-06-26T01:50:22;97824.59;;;13.52;70.78
50011;BME280;35899;50.352;19.390;2023-06-26T01:58:08;97820.86;;;13.39;70.63
50011;BME280;35899;50.352;19.390;2023-06-26T02:00:35;97821.67;;;13.33;70.87
50011;BME280;35899;50.352;19.390;2023-06-26T02:03:03;97817.04;;;13.30;71.21
50011;BME280;35899;50.352;19.390;2023-06-26T02:05:30;97819.06;;;13.26;71.30
50011;BME280;35899;50.352;19.390;2023-06-26T02:07:58;97815.91;;;13.22;71.37
50011;BME280;35899;50.352;19.390;2023-06-26T02:10:24;97818.73;;;13.22;71.67
50011;BME280;35899;50.352;19.390;2023-06-26T02:12:51;97819.41;;;13.22;71.78
50011;BME280;35899;50.352;19.390;2023-06-26T02:15:17;97819.27;;;13.20;71.55
50011;BME280;35899;50.352;19.390;2023-06-26T02:17:43;97820.34;;;13.15;71.35
50011;BME280;35899;50.352;19.390;2023-06-26T02:20:10;97818.95;;;13.11;71.37
50011;BME280;35899;50.352;19.390;2023-06-26T02:22:36;97816.73;;;13.06;71.46
50011;BME280;35899;50.352;19.390;2023-06-26T02:25:02;97818.23;;;13.03;71.64
50011;BME280;35899;50.352;19.390;2023-06-26T02:27:31;97815.98;;;13.07;72.24
50011;BME280;35899;50.352;19.390;2023-06-26T02:29:57;97814.23;;;13.13;72.31
50011;BME280;35899;50.352;19.390;2023-06-26T02:32:24;97813.95;;;13.17;72.37
50011;BME280;35899;50.352;19.390;2023-06-26T02:34:50;97813.31;;;13.20;72.60
50011;BME280;35899;50.352;19.390;2023-06-26T02:37:17;97815.33;;;13.25;72.73
50011;BME280;35899;50.352;19.390;2023-06-26T02:39:43;97819.61;;;13.28;72.75
50011;BME280;35899;50.352;19.390;2023-06-26T02:42:10;97822.11;;;13.27;72.49
50011;BME280;35899;50.352;19.390;2023-06-26T02:44:36;97825.42;;;13.23;72.13
50011;BME280;35899;50.352;19.390;2023-06-26T02:47:03;97824.12;;;13.18;71.86
50011;BME280;35899;50.352;19.390;2023-06-26T02:49:29;97822.05;;;13.14;72.08
50011;BME280;35899;50.352;19.390;2023-06-26T02:51:56;97828.61;;;13.12;72.11
50011;BME280;35899;50.352;19.390;2023-06-26T02:54:25;97825.48;;;13.12;72.31
50011;BME280;35899;50.352;19.390;2023-06-26T02:56:54;97823.80;;;13.11;72.31
50011;BME280;35899;50.352;19.390;2023-06-26T02:59:24;97823.86;;;13.10;72.22
50011;BME280;35899;50.352;19.390;2023-06-26T03:01:51;97825.45;;;13.16;72.67
50011;BME280;35899;50.352;19.390;2023-06-26T03:04:18;97826.20;;;13.22;72.82
50011;BME280;35899;50.352;19.390;2023-06-26T03:06:45;97825.46;;;13.25;72.43
50011;BME280;35899;50.352;19.390;2023-06-26T03:09:11;97824.30;;;13.26;72.45
50011;BME280;35899;50.352;19.390;2023-06-26T03:11:37;97824.45;;;13.31;72.60
50011;BME280;35899;50.352;19.390;2023-06-26T03:14:04;97822.88;;;13.42;72.81
50011;BME280;35899;50.352;19.390;2023-06-26T03:16:31;97819.58;;;13.52;72.96
50011;BME280;35899;50.352;19.390;2023-06-26T03:18:58;97819.77;;;13.60;72.64
50011;BME280;35899;50.352;19.390;2023-06-26T03:21:24;97819.39;;;13.59;72.35
50011;BME280;35899;50.352;19.390;2023-06-26T03:23:51;97822.52;;;13.59;72.14
50011;BME280;35899;50.352;19.390;2023-06-26T03:26:17;97819.67;;;13.61;72.38
50011;BME280;35899;50.352;19.390;2023-06-26T03:28:46;97818.12;;;13.69;72.52
50011;BME280;35899;50.352;19.390;2023-06-26T03:31:13;97819.55;;;13.81;72.75
50011;BME280;35899;50.352;19.390;2023-06-26T03:33:40;97823.34;;;13.94;72.70
50011;BME280;35899;50.352;19.390;2023-06-26T03:36:07;97823.88;;;14.06;72.70
50011;BME280;35899;50.352;19.390;2023-06-26T03:38:33;97821.75;;;14.19;72.56
50011;BME280;35899;50.352;19.390;2023-06-26T03:41:00;97824.70;;;14.31;72.47
50011;BME280;35899;50.352;19.390;2023-06-26T03:43:27;97825.15;;;14.41;72.18
50011;BME280;35899;50.352;19.390;2023-06-26T03:46:29;97827.30;;;14.57;72.11
50011;BME280;35899;50.352;19.390;2023-06-26T03:48:57;97829.58;;;14.67;71.96
50011;BME280;35899;50.352;19.390;2023-06-26T03:51:23;97831.31;;;14.77;72.05
50011;BME280;35899;50.352;19.390;2023-06-26T03:53:49;97828.58;;;14.86;71.75
50011;BME280;35899;50.352;19.390;2023-06-26T03:56:16;97829.17;;;14.90;71.72
50011;BME280;35899;50.352;19.390;2023-06-26T03:58:42;97827.52;;;14.90;71.96
50011;BME280;35899;50.352;19.390;2023-06-26T04:01:10;97829.47;;;14.90;72.13
50011;BME280;35899;50.352;19.390;2023-06-26T04:03:36;97829.87;;;14.92;72.23
50011;BME280;35899;50.352;19.390;2023-06-26T04:06:03;97833.44;;;14.96;72.50
50011;BME280;35899;50.352;19.390;2023-06-26T04:08:29;97829.06;;;15.02;72.77
50011;BME280;35899;50.352;19.390;2023-06-26T04:10:56;97831.54;;;15.10;73.26
50011;BME280;35899;50.352;19.390;2023-06-26T04:13:22;97828.77;;;15.19;73.39
50011;BME280;35899;50.352;19.390;2023-06-26T04:15:48;97832.48;;;15.28;73.70
50011;BME280;35899;50.352;19.390;2023-06-26T04:18:15;97829.45;;;15.40;73.94
50011;BME280;35899;50.352;19.390;2023-06-26T04:20:42;97828.89;;;15.54;73.94
50011;BME280;35899;50.352;19.390;2023-06-26T04:23:27;97826.70;;;15.67;74.03
50011;BME280;35899;50.352;19.390;2023-06-26T04:25:54;97827.37;;;15.76;74.10
50011;BME280;35899;50.352;19.390;2023-06-26T04:28:20;97825.43;;;15.86;74.23
50011;BME280;35899;50.352;19.390;2023-06-26T04:30:46;97821.90;;;15.96;74.33
50011;BME280;35899;50.352;19.390;2023-06-26T04:33:13;97824.92;;;16.08;74.47
50011;BME280;35899;50.352;19.390;2023-06-26T04:35:39;97823.30;;;16.16;74.34
50011;BME280;35899;50.352;19.390;2023-06-26T04:38:05;97820.30;;;16.24;74.23
50011;BME280;35899;50.352;19.390;2023-06-26T04:40:32;97820.08;;;16.32;74.38
50011;BME280;35899;50.352;19.390;2023-06-26T04:42:58;97819.25;;;16.44;74.30
50011;BME280;35899;50.352;19.390;2023-06-26T04:45:25;97818.15;;;16.54;74.25
50011;BME280;35899;50.352;19.390;2023-06-26T04:47:51;97819.83;;;16.62;74.30
50011;BME280;35899;50.352;19.390;2023-06-26T04:50:17;97817.60;;;16.72;74.45
50011;BME280;35899;50.352;19.390;2023-06-26T04:52:44;97820.94;;;16.83;74.45
50011;BME280;35899;50.352;19.390;2023-06-26T04:55:10;97825.61;;;16.93;74.47
50011;BME280;35899;50.352;19.390;2023-06-26T04:57:36;97823.23;;;17.03;74.48
50011;BME280;35899;50.352;19.390;2023-06-26T05:00:03;97818.69;;;17.13;74.55
50011;BME280;35899;50.352;19.390;2023-06-26T05:02:29;97819.36;;;17.24;74.64
50011;BME280;35899;50.352;19.390;2023-06-26T05:04:56;97820.52;;;17.37;74.86
50011;BME280;35899;50.352;19.390;2023-06-26T05:07:22;97817.24;;;17.49;75.02
50011;BME280;35899;50.352;19.390;2023-06-26T05:09:49;97817.09;;;17.61;74.96
50011;BME280;35899;50.352;19.390;2023-06-26T05:12:15;97818.66;;;17.73;74.89
50011;BME280;35899;50.352;19.390;2023-06-26T05:14:41;97817.34;;;17.90;74.60
50011;BME280;35899;50.352;19.390;2023-06-26T05:17:08;97819.77;;;18.07;73.98
50011;BME280;35899;50.352;19.390;2023-06-26T05:19:34;97822.14;;;18.23;73.12
50011;BME280;35899;50.352;19.390;2023-06-26T05:22:01;97825.73;;;18.36;72.64
50011;BME280;35899;50.352;19.390;2023-06-26T05:24:27;97824.02;;;18.48;71.73
50011;BME280;35899;50.352;19.390;2023-06-26T05:26:55;97823.64;;;18.51;70.67
50011;BME280;35899;50.352;19.390;2023-06-26T05:29:21;97822.04;;;18.55;70.37
50011;BME280;35899;50.352;19.390;2023-06-26T05:31:48;97822.40;;;18.61;70.13
50011;BME280;35899;50.352;19.390;2023-06-26T05:34:15;97818.78;;;18.72;70.54
50011;BME280;35899;50.352;19.390;2023-06-26T05:36:43;97819.30;;;18.81;69.75
50011;BME280;35899;50.352;19.390;2023-06-26T05:39:09;97819.52;;;18.89;69.70
50011;BME280;35899;50.352;19.390;2023-06-26T05:41:36;97816.08;;;18.98;69.73
50011;BME280;35899;50.352;19.390;2023-06-26T05:44:02;97817.40;;;19.12;69.87
50011;BME280;35899;50.352;19.390;2023-06-26T05:46:29;97819.11;;;19.27;69.66
50011;BME280;35899;50.352;19.390;2023-06-26T05:48:58;97817.32;;;19.41;69.42
50011;BME280;35899;50.352;19.390;2023-06-26T05:51:25;97817.72;;;19.58;69.68
50011;BME280;35899;50.352;19.390;2023-06-26T05:53:51;97817.05;;;19.74;69.60
50011;BME280;35899;50.352;19.390;2023-06-26T05:56:17;97817.98;;;19.88;69.08
50011;BME280;35899;50.352;19.390;2023-06-26T05:58:44;97812.11;;;20.00;68.48
50011;BME280;35899;50.352;19.390;2023-06-26T06:01:11;97812.24;;;20.15;68.33
50011;BME280;35899;50.352;19.390;2023-06-26T06:03:38;97810.27;;;20.27;67.70
50011;BME280;35899;50.352;19.390;2023-06-26T06:06:05;97808.45;;;20.39;67.38
50011;BME280;35899;50.352;19.390;2023-06-26T06:08:31;97810.34;;;20.46;66.70
50011;BME280;35899;50.352;19.390;2023-06-26T06:10:59;97811.67;;;20.49;66.16
50011;BME280;35899;50.352;19.390;2023-06-26T06:13:25;97808.34;;;20.59;65.90
50011;BME280;35899;50.352;19.390;2023-06-26T06:15:52;97810.52;;;20.71;65.88
50011;BME280;35899;50.352;19.390;2023-06-26T06:18:18;97810.20;;;20.85;66.42
50011;BME280;35899;50.352;19.390;2023-06-26T06:20:45;97807.38;;;20.97;66.69
50011;BME280;35899;50.352;19.390;2023-06-26T06:23:11;97806.30;;;21.08;66.45
50011;BME280;35899;50.352;19.390;2023-06-26T06:25:37;97803.72;;;21.21;66.13
50011;BME280;35899;50.352;19.390;2023-06-26T06:28:04;97805.41;;;21.29;65.64
50011;BME280;35899;50.352;19.390;2023-06-26T06:30:31;97801.95;;;21.36;64.74
50011;BME280;35899;50.352;19.390;2023-06-26T06:33:11;97803.88;;;21.39;63.76
50011;BME280;35899;50.352;19.390;2023-06-26T06:35:37;97800.73;;;21.47;63.38
50011;BME280;35899;50.352;19.390;2023-06-26T06:38:03;97806.96;;;21.54;62.91
50011;BME280;35899;50.352;19.390;2023-06-26T06:40:30;97805.45;;;21.64;62.57
50011;BME280;35899;50.352;19.390;2023-06-26T06:42:56;97803.23;;;21.74;62.23
50011;BME280;35899;50.352;19.390;2023-06-26T06:45:22;97806.31;;;21.82;61.87
50011;BME280;35899;50.352;19.390;2023-06-26T06:47:49;97806.55;;;21.90;61.51
50011;BME280;35899;50.352;19.390;2023-06-26T06:50:15;97805.48;;;21.99;61.09
50011;BME280;35899;50.352;19.390;2023-06-26T06:52:42;97802.91;;;22.10;61.43
50011;BME280;35899;50.352;19.390;2023-06-26T06:55:08;97803.23;;;22.22;60.95
50011;BME280;35899;50.352;19.390;2023-06-26T06:57:35;97805.05;;;22.31;60.17
50011;BME280;35899;50.352;19.390;2023-06-26T07:00:03;97805.07;;;22.40;60.34
50011;BME280;35899;50.352;19.390;2023-06-26T07:02:29;97808.79;;;22.48;59.49
50011;BME280;35899;50.352;19.390;2023-06-26T07:04:56;97809.35;;;22.51;58.45
50011;BME280;35899;50.352;19.390;2023-06-26T07:07:22;97805.69;;;22.58;57.97
50011;BME280;35899;50.352;19.390;2023-06-26T07:09:49;97807.77;;;22.64;57.49
50011;BME280;35899;50.352;19.390;2023-06-26T07:12:15;97804.62;;;22.70;56.85
50011;BME280;35899;50.352;19.390;2023-06-26T07:14:42;97807.85;;;22.71;55.78
50011;BME280;35899;50.352;19.390;2023-06-26T07:17:08;97805.09;;;22.72;55.44
50011;BME280;35899;50.352;19.390;2023-06-26T07:19:34;97806.48;;;22.77;55.52
50011;BME280;35899;50.352;19.390;2023-06-26T07:22:01;97807.90;;;22.84;55.01
50011;BME280;35899;50.352;19.390;2023-06-26T07:24:27;97805.98;;;22.96;55.49
50011;BME280;35899;50.352;19.390;2023-06-26T07:26:55;97805.85;;;23.10;54.97
50011;BME280;35899;50.352;19.390;2023-06-26T07:29:22;97806.55;;;23.20;53.71
50011;BME280;35899;50.352;19.390;2023-06-26T07:31:48;97806.63;;;23.27;52.82
50011;BME280;35899;50.352;19.390;2023-06-26T07:34:15;97806.88;;;23.32;52.05
50011;BME280;35899;50.352;19.390;2023-06-26T07:36:41;97806.23;;;23.38;51.52
50011;BME280;35899;50.352;19.390;2023-06-26T07:39:08;97804.23;;;23.44;51.38
50011;BME280;35899;50.352;19.390;2023-06-26T07:41:38;97802.05;;;23.52;51.38
50011;BME280;35899;50.352;19.390;2023-06-26T07:44:04;97800.81;;;23.62;51.06
50011;BME280;35899;50.352;19.390;2023-06-26T07:46:30;97803.80;;;23.71;50.43
50011;BME280;35899;50.352;19.390;2023-06-26T07:48:57;97803.86;;;23.78;50.16
50011;BME280;35899;50.352;19.390;2023-06-26T07:51:23;97802.64;;;23.91;50.60
50011;BME280;35899;50.352;19.390;2023-06-26T07:53:50;97800.51;;;24.03;51.17
50011;BME280;35899;50.352;19.390;2023-06-26T07:56:17;97800.08;;;24.15;50.03
50011;BME280;35899;50.352;19.390;2023-06-26T07:58:43;97801.43;;;24.19;48.92
50011;BME280;35899;50.352;19.390;2023-06-26T08:01:09;97801.20;;;24.24;48.72
50011;BME280;35899;50.352;19.390;2023-06-26T08:03:36;97798.61;;;24.28;47.99
50011;BME280;35899;50.352;19.390;2023-06-26T08:06:02;97801.59;;;24.28;48.00
50011;BME280;35899;50.352;19.390;2023-06-26T08:08:29;97799.82;;;24.36;47.82
50011;BME280;35899;50.352;19.390;2023-06-26T08:10:56;97797.38;;;24.48;47.47
50011;BME280;35899;50.352;19.390;2023-06-26T08:13:22;97797.36;;;24.65;47.44
50011;BME280;35899;50.352;19.390;2023-06-26T08:15:48;97798.45;;;24.81;46.93
50011;BME280;35899;50.352;19.390;2023-06-26T08:18:15;97801.25;;;24.91;46.09
50011;BME280;35899;50.352;19.390;2023-06-26T08:20:41;97799.41;;;25.02;45.52
50011;BME280;35899;50.352;19.390;2023-06-26T08:23:09;97803.45;;;25.11;45.39
50011;BME280;35899;50.352;19.390;2023-06-26T08:25:35;97801.20;;;25.28;45.37
50011;BME280;35899;50.352;19.390;2023-06-26T08:28:01;97801.77;;;25.38;44.35
50011;BME280;35899;50.352;19.390;2023-06-26T08:30:28;97804.73;;;25.53;44.24
50011;BME280;35899;50.352;19.390;2023-06-26T08:32:55;97797.40;;;25.69;43.71
50011;BME280;35899;50.352;19.390;2023-06-26T08:35:21;97802.40;;;25.80;43.20
50011;BME280;35899;50.352;19.390;2023-06-26T08:37:48;97797.27;;;25.96;42.91
50011;BME280;35899;50.352;19.390;2023-06-26T08:40:16;97797.11;;;26.08;42.55
50011;BME280;35899;50.352;19.390;2023-06-26T08:42:43;97792.42;;;26.23;43.47
50011;BME280;35899;50.352;19.390;2023-06-26T08:45:09;97789.63;;;26.43;42.35
50011;BME280;35899;50.352;19.390;2023-06-26T08:47:36;97789.65;;;26.48;41.10
50011;BME280;35899;50.352;19.390;2023-06-26T08:50:12;97784.03;;;26.58;41.75
50011;BME280;35899;50.352;19.390;2023-06-26T08:52:43;97791.23;;;26.74;40.52
50011;BME280;35899;50.352;19.390;2023-06-26T08:55:12;97785.24;;;26.90;40.68
50011;BME280;35899;50.352;19.390;2023-06-26T08:57:41;97793.36;;;26.95;39.63
50011;BME280;35899;50.352;19.390;2023-06-26T09:00:08;97793.02;;;26.78;38.98
50011;BME280;35899;50.352;19.390;2023-06-26T09:02:35;97795.83;;;26.60;39.27
50011;BME280;35899;50.352;19.390;2023-06-26T09:05:03;97792.55;;;26.67;39.20
50011;BME280;35899;50.352;19.390;2023-06-26T09:07:31;97790.16;;;26.70;39.35
50011;BME280;35899;50.352;19.390;2023-06-26T09:09:58;97785.63;;;26.87;39.76
50011;BME280;35899;50.352;19.390;2023-06-26T09:12:26;97787.44;;;27.17;40.68
50011;BME280;35899;50.352;19.390;2023-06-26T09:14:52;97782.11;;;27.49;40.28
50011;BME280;35899;50.352;19.390;2023-06-26T09:17:19;97781.83;;;27.77;40.44
50011;BME280;35899;50.352;19.390;2023-06-26T09:19:50;97782.62;;;28.07;40.31
50011;BME280;35899;50.352;19.390;2023-06-26T09:22:16;97781.52;;;28.40;40.06
50011;BME280;35899;50.352;19.390;2023-06-26T09:24:43;97783.98;;;28.69;38.92
50011;BME280;35899;50.352;19.390;2023-06-26T09:27:10;97784.02;;;28.80;37.81
50011;BME280;35899;50.352;19.390;2023-06-26T09:29:37;97783.42;;;28.81;37.29
50011;BME280;35899;50.352;19.390;2023-06-26T09:32:03;97781.14;;;28.53;37.11
50011;BME280;35899;50.352;19.390;2023-06-26T09:34:30;97783.29;;;28.06;37.26
50011;BME280;35899;50.352;19.390;2023-06-26T09:36:57;97779.66;;;27.65;37.61
50011;BME280;35899;50.352;19.390;2023-06-26T09:39:23;97783.04;;;27.21;37.46
50011;BME280;35899;50.352;19.390;2023-06-26T09:41:50;97783.38;;;26.80;38.04
50011;BME280;35899;50.352;19.390;2023-06-26T09:44:17;97783.17;;;26.49;38.53
50011;BME280;35899;50.352;19.390;2023-06-26T09:46:45;97782.36;;;26.21;38.56
50011;BME280;35899;50.352;19.390;2023-06-26T09:49:12;97781.28;;;25.97;38.91
50011;BME280;35899;50.352;19.390;2023-06-26T09:51:39;97779.09;;;26.11;39.77
50011;BME280;35899;50.352;19.390;2023-06-26T09:54:06;97774.64;;;26.48;40.10
50011;BME280;35899;50.352;19.390;2023-06-26T09:56:33;97772.24;;;26.84;39.34
50011;BME280;35899;50.352;19.390;2023-06-26T09:59:00;97770.19;;;27.24;40.35
50011;BME280;35899;50.352;19.390;2023-06-26T10:01:27;97767.93;;;27.63;40.25
50011;BME280;35899;50.352;19.390;2023-06-26T10:03:54;97766.60;;;28.01;39.73
50011;BME280;35899;50.352;19.390;2023-06-26T10:06:26;97763.46;;;28.39;39.08
50011;BME280;35899;50.352;19.390;2023-06-26T10:08:53;97765.31;;;28.78;37.65
50011;BME280;35899;50.352;19.390;2023-06-26T10:11:21;97765.48;;;29.20;37.23
50011;BME280;35899;50.352;19.390;2023-06-26T10:13:49;97760.17;;;29.69;36.27
50011;BME280;35899;50.352;19.390;2023-06-26T10:16:23;97757.10;;;30.04;35.01
50011;BME280;35899;50.352;19.390;2023-06-26T10:18:53;97750.40;;;30.42;34.61
50011;BME280;35899;50.352;19.390;2023-06-26T10:21:20;97745.38;;;30.92;34.23
50011;BME280;35899;50.352;19.390;2023-06-26T10:23:47;97751.16;;;31.29;34.69
50011;BME280;35899;50.352;19.390;2023-06-26T10:26:14;97751.20;;;31.68;34.34
50011;BME280;35899;50.352;19.390;2023-06-26T10:28:41;97747.14;;;32.03;33.70
50011;BME280;35899;50.352;19.390;2023-06-26T10:31:08;97740.69;;;32.31;32.71
50011;BME280;35899;50.352;19.390;2023-06-26T10:33:35;97733.17;;;32.58;32.69
50011;BME280;35899;50.352;19.390;2023-06-26T10:36:12;97732.90;;;32.95;32.40
50011;BME280;35899;50.352;19.390;2023-06-26T10:38:49;97733.55;;;33.29;31.35
50011;BME280;35899;50.352;19.390;2023-06-26T10:41:17;97726.98;;;33.57;30.26
50011;BME280;35899;50.352;19.390;2023-06-26T10:43:45;97729.42;;;33.70;29.93
50011;BME280;35899;50.352;19.390;2023-06-26T10:46:11;97727.41;;;33.49;29.83
50011;BME280;35899;50.352;19.390;2023-06-26T10:48:59;97724.42;;;33.62;29.45
50011;BME280;35899;50.352;19.390;2023-06-26T10:51:26;97718.23;;;33.98;29.56
50011;BME280;35899;50.352;19.390;2023-06-26T10:53:54;97721.62;;;34.32;29.24
50011;BME280;35899;50.352;19.390;2023-06-26T10:56:20;97721.17;;;34.58;28.28
50011;BME280;35899;50.352;19.390;2023-06-26T10:58:47;97722.98;;;34.94;28.02
50011;BME280;35899;50.352;19.390;2023-06-26T11:06:13;97721.61;;;36.52;26.48
50011;BME280;35899;50.352;19.390;2023-06-26T11:08:53;97723.09;;;37.01;25.87
50011;BME280;35899;50.352;19.390;2023-06-26T11:11:20;97724.52;;;37.64;25.53
50011;BME280;35899;50.352;19.390;2023-06-26T11:13:47;97714.11;;;38.29;25.02
50011;BME280;35899;50.352;19.390;2023-06-26T11:16:14;97712.46;;;38.70;23.96
50011;BME280;35899;50.352;19.390;2023-06-26T11:18:41;97707.81;;;38.92;23.42
50011;BME280;35899;50.352;19.390;2023-06-26T11:21:08;97712.67;;;39.40;24.02
50011;BME280;35899;50.352;19.390;2023-06-26T11:23:35;97709.98;;;39.61;23.49
50011;BME280;35899;50.352;19.390;2023-06-26T11:28:58;97712.70;;;40.03;22.84
50011;BME280;35899;50.352;19.390;2023-06-26T11:31:31;97709.17;;;40.40;22.59
50011;BME280;35899;50.352;19.390;2023-06-26T11:33:58;97710.08;;;40.64;21.20
50011;BME280;35899;50.352;19.390;2023-06-26T11:36:25;97710.91;;;40.63;21.00
50011;BME280;35899;50.352;19.390;2023-06-26T11:38:55;97712.23;;;40.83;20.74
50011;BME280;35899;50.352;19.390;2023-06-26T11:41:31;97703.89;;;40.99;20.50
50011;BME280;35899;50.352;19.390;2023-06-26T11:44:08;97706.96;;;41.49;20.79
50011;BME280;35899;50.352;19.390;2023-06-26T11:46:35;97705.34;;;41.83;20.00
50011;BME280;35899;50.352;19.390;2023-06-26T11:49:07;97703.57;;;40.54;19.96
50011;BME280;35899;50.352;19.390;2023-06-26T11:51:34;97700.58;;;38.69;21.19
50011;BME280;35899;50.352;19.390;2023-06-26T11:54:01;97706.30;;;37.60;22.77
50011;BME280;35899;50.352;19.390;2023-06-26T11:56:28;97705.45;;;38.55;21.98
50011;BME280;35899;50.352;19.390;2023-06-26T12:01:22;97702.80;;;40.05;21.04
50011;BME280;35899;50.352;19.390;2023-06-26T12:03:50;97701.36;;;41.11;20.94
50011;BME280;35899;50.352;19.390;2023-06-26T12:06:16;97694.15;;;41.71;20.15
50011;BME280;35899;50.352;19.390;2023-06-26T12:08:43;97692.92;;;42.08;20.49
50011;BME280;35899;50.352;19.390;2023-06-26T12:11:10;97684.14;;;42.94;20.04
50011;BME280;35899;50.352;19.390;2023-06-26T12:13:36;97683.94;;;42.62;19.31
50011;BME280;35899;50.352;19.390;2023-06-26T12:16:03;97685.69;;;40.85;20.11
50011;BME280;35899;50.352;19.390;2023-06-26T12:18:35;97680.33;;;39.31;20.21
50011;BME280;35899;50.352;19.390;2023-06-26T12:21:01;97684.02;;;37.30;20.96
50011;BME280;35899;50.352;19.390;2023-06-26T12:23:38;97683.67;;;35.99;22.43
50011;BME280;35899;50.352;19.390;2023-06-26T12:26:21;97681.77;;;34.90;23.51
50011;BME280;35899;50.352;19.390;2023-06-26T12:28:47;97683.73;;;34.09;24.49
50011;BME280;35899;50.352;19.390;2023-06-26T12:31:17;97679.54;;;34.33;24.86
50011;BME280;35899;50.352;19.390;2023-06-26T12:33:43;97675.89;;;34.59;25.20
50011;BME280;35899;50.352;19.390;2023-06-26T12:36:13;97674.80;;;36.58;23.92
50011;BME280;35899;50.352;19.390;2023-06-26T12:38:42;97669.95;;;38.47;22.55
50011;BME280;35899;50.352;19.390;2023-06-26T12:41:12;97668.04;;;38.73;21.95
50011;BME280;35899;50.352;19.390;2023-06-26T12:43:38;97670.56;;;38.06;22.01
50011;BME280;35899;50.352;19.390;2023-06-26T12:46:04;97668.61;;;38.67;21.95
50011;BME280;35899;50.352;19.390;2023-06-26T12:48:37;97667.92;;;39.23;21.67
50011;BME280;35899;50.352;19.390;2023-06-26T12:51:08;97666.79;;;40.99;20.95
50011;BME280;35899;50.352;19.390;2023-06-26T12:53:34;97662.88;;;42.40;20.31
50011;BME280;35899;50.352;19.390;2023-06-26T12:56:03;97663.75;;;43.77;19.90
50011;BME280;35899;50.352;19.390;2023-06-26T12:58:29;97662.04;;;44.73;18.89
50011;BME280;35899;50.352;19.390;2023-06-26T13:00:55;97666.27;;;45.62;18.21
50011;BME280;35899;50.352;19.390;2023-06-26T13:03:22;97668.98;;;46.03;17.47
50011;BME280;35899;50.352;19.390;2023-06-26T13:05:48;97665.96;;;44.69;17.80
50011;BME280;35899;50.352;19.390;2023-06-26T13:08:15;97660.94;;;43.16;18.07
50011;BME280;35899;50.352;19.390;2023-06-26T13:10:42;97664.20;;;42.21;18.38